Time;durP1;ratioP1;P1;durP2;ratioP2;P2;SDS_P1;SDS_P2;PMS_P1;PMS_P2;Temp;Humidity;BMP_temperature;BMP_pressure;BME280_temperature;BME280_humidity;BME280_pressure;Samples;Min_cycle;Max_cycle;Signal;HPM_P1;HPM_P2
2022/12/10 00:01:30;;;;;;;104.18;33.60;;;-2.70;99.90;;;;;;5022526;28;20520;-57
2022/12/10 00:03:56;;;;;;;105.43;33.95;;;-2.70;99.90;;;;;;5022219;28;20052;-57
2022/12/10 00:06:31;;;;;;;96.65;32.78;;;-2.70;99.90;;;;;;5037761;28;20156;-57
2022/12/10 00:08:59;;;;;;;109.38;33.67;;;-2.60;99.90;;;;;;5023069;28;20201;-57
2022/12/10 00:11:24;;;;;;;114.63;35.30;;;-2.60;99.90;;;;;;5023229;28;20060;-56
2022/12/10 00:13:51;;;;;;;112.60;35.95;;;-2.50;99.90;;;;;;5023485;28;20041;-58
2022/12/10 00:16:19;;;;;;;107.38;36.33;;;-2.40;99.90;;;;;;5022403;28;20041;-58
2022/12/10 00:18:45;;;;;;;94.70;34.83;;;-2.40;99.90;;;;;;5021989;28;20412;-58
2022/12/10 00:21:14;;;;;;;105.28;35.90;;;-2.40;99.90;;;;;;5022636;28;20060;-56
2022/12/10 00:23:40;;;;;;;106.85;35.25;;;-2.30;99.90;;;;;;5022924;28;20583;-58
2022/12/10 00:26:21;;;;;;;96.88;35.20;;;-2.30;99.90;;;;;;5021966;28;20049;-57
2022/12/10 00:28:47;;;;;;;102.97;35.00;;;-2.20;99.90;;;;;;5022583;28;20044;-58
2022/12/10 00:31:22;;;;;;;108.32;35.60;;;-2.20;99.90;;;;;;5023060;28;20144;-57
2022/12/10 00:33:48;;;;;;;112.15;36.75;;;-2.20;99.90;;;;;;5022374;28;20587;-57
2022/12/10 00:36:17;;;;;;;114.05;37.00;;;-2.20;99.90;;;;;;5022342;28;20079;-57
2022/12/10 00:38:43;;;;;;;122.57;37.10;;;-2.10;99.90;;;;;;5022492;28;20037;-57
2022/12/10 00:41:09;;;;;;;110.30;36.92;;;-2.10;99.90;;;;;;5022968;28;20044;-57
2022/12/10 00:43:35;;;;;;;103.13;37.53;;;-2.00;99.90;;;;;;5038203;28;20431;-58
2022/12/10 00:46:01;;;;;;;98.78;35.83;;;-2.00;99.90;;;;;;5022438;28;20041;-58
2022/12/10 00:48:26;;;;;;;114.28;38.13;;;-1.90;99.90;;;;;;5003733;28;20037;-58
2022/12/10 00:50:56;;;;;;;104.65;35.45;;;-1.90;99.90;;;;;;5022292;28;20580;-57
2022/12/10 00:53:24;;;;;;;102.43;35.97;;;-1.90;99.90;;;;;;5022688;28;20049;-56
2022/12/10 00:55:49;;;;;;;108.22;34.55;;;-1.90;99.90;;;;;;5022717;28;20600;-57
2022/12/10 00:58:15;;;;;;;95.85;35.08;;;-1.90;99.90;;;;;;5020608;28;20132;-57
2022/12/10 01:00:40;;;;;;;104.30;35.42;;;-1.90;99.90;;;;;;5017880;28;20045;-57
2022/12/10 01:03:06;;;;;;;92.75;34.10;;;-1.90;99.90;;;;;;5025309;28;20085;-57
2022/12/10 01:05:31;;;;;;;100.72;36.00;;;-2.00;99.90;;;;;;5041052;28;20087;-58
2022/12/10 01:07:57;;;;;;;96.43;34.33;;;-2.00;99.90;;;;;;5026184;28;20053;-57
2022/12/10 01:10:22;;;;;;;97.50;34.97;;;-2.00;99.90;;;;;;5025950;28;20049;-58
2022/12/10 01:12:48;;;;;;;91.65;33.88;;;-2.00;99.90;;;;;;5025207;28;20045;-57
2022/12/10 01:15:14;;;;;;;96.90;34.85;;;-2.10;99.90;;;;;;5025392;28;20049;-57
2022/12/10 01:17:39;;;;;;;98.30;35.55;;;-2.10;99.90;;;;;;5025205;28;20072;-58
2022/12/10 01:20:05;;;;;;;94.50;32.50;;;-2.20;99.90;;;;;;5025295;28;20629;-59
2022/12/10 01:22:31;;;;;;;97.07;33.97;;;-2.20;99.90;;;;;;5025901;28;20092;-58
2022/12/10 01:24:56;;;;;;;91.95;33.10;;;-2.20;99.90;;;;;;5024987;28;20064;-58
2022/12/10 01:27:22;;;;;;;96.57;34.30;;;-2.20;99.90;;;;;;5026172;28;20038;-57
2022/12/10 01:29:47;;;;;;;94.50;35.38;;;-2.30;99.90;;;;;;5025908;28;20037;-57
2022/12/10 01:32:13;;;;;;;98.20;34.70;;;-2.30;99.90;;;;;;5025734;28;20115;-58
2022/12/10 01:34:38;;;;;;;99.47;35.58;;;-2.40;99.90;;;;;;5025342;28;20116;-56
2022/12/10 01:37:04;;;;;;;94.90;34.95;;;-2.40;99.90;;;;;;5039512;28;20049;-57
2022/12/10 01:39:30;;;;;;;97.35;34.53;;;-2.40;99.90;;;;;;5025776;28;20313;-58
2022/12/10 01:41:58;;;;;;;102.78;35.25;;;-2.40;99.90;;;;;;5024331;28;20045;-57
2022/12/10 01:44:23;;;;;;;105.38;37.63;;;-2.50;99.90;;;;;;5025315;28;20216;-58
2022/12/10 01:46:51;;;;;;;100.10;34.47;;;-2.50;99.90;;;;;;5025223;28;20911;-57
2022/12/10 01:49:20;;;;;;;108.68;36.78;;;-2.50;99.90;;;;;;5024902;28;20033;-57
2022/12/10 01:51:48;;;;;;;105.65;36.67;;;-2.50;99.90;;;;;;5025461;28;20228;-57
2022/12/10 01:54:21;;;;;;;97.78;35.72;;;-2.50;99.90;;;;;;5026076;28;20072;-56
2022/12/10 01:56:54;;;;;;;105.57;37.78;;;-2.60;99.90;;;;;;5026327;28;20123;-57
2022/12/10 01:59:19;;;;;;;98.55;35.38;;;-2.60;99.90;;;;;;5025476;28;20048;-58
2022/12/10 02:01:45;;;;;;;112.15;36.05;;;-2.60;99.90;;;;;;5025910;28;20045;-58
2022/12/10 02:04:35;;;;;;;106.55;37.10;;;-2.60;99.90;;;;;;5039685;28;20041;-57
2022/12/10 02:07:19;;;;;;;106.10;36.03;;;-2.60;99.90;;;;;;5025696;28;20045;-57
2022/12/10 02:10:19;;;;;;;105.55;36.92;;;-2.60;99.90;;;;;;5025764;28;20127;-56
2022/12/10 02:12:53;;;;;;;111.90;37.67;;;-2.70;99.90;;;;;;5020869;28;20064;-56
2022/12/10 02:15:20;;;;;;;;;;;-2.60;99.90;;;;;;5006089;28;20053;-57
2022/12/10 02:17:56;;;;;;;109.10;37.75;;;-2.70;99.90;;;;;;5022537;28;19948;-57
2022/12/10 02:20:36;;;;;;;122.25;39.58;;;-2.70;99.90;;;;;;5008170;28;20052;-56
2022/12/10 02:23:07;;;;;;;127.40;38.95;;;-2.70;99.90;;;;;;5024705;28;20130;-57
2022/12/10 02:25:57;;;;;;;109.75;35.58;;;-2.70;99.90;;;;;;5024804;28;20045;-57
2022/12/10 02:28:39;;;;;;;103.68;36.67;;;-2.70;99.90;;;;;;4985753;28;20125;-57
2022/12/10 02:31:06;;;;;;;114.93;38.83;;;-2.80;99.90;;;;;;5004833;28;20350;-57
2022/12/10 02:33:34;;;;;;;112.35;40.03;;;-2.80;99.90;;;;;;5015871;28;20052;-57
2022/12/10 02:36:02;;;;;;;116.85;40.33;;;-2.80;99.90;;;;;;5024495;28;20037;-57
2022/12/10 02:38:31;;;;;;;126.68;39.50;;;-2.80;99.90;;;;;;5024367;28;20045;-57
2022/12/10 02:41:07;;;;;;;124.63;39.95;;;-2.90;99.90;;;;;;5024508;28;20370;-55
2022/12/10 02:43:33;;;;;;;128.55;39.42;;;-2.90;99.90;;;;;;5022207;28;20602;-57
2022/12/10 02:46:03;;;;;;;124.03;38.25;;;-2.90;99.90;;;;;;5024179;28;20037;-57
2022/12/10 02:48:29;;;;;;;135.25;41.35;;;-2.90;99.90;;;;;;5022951;28;20496;-57
2022/12/10 02:50:54;;;;;;;116.63;39.75;;;-2.80;99.90;;;;;;5023315;28;20076;-57
2022/12/10 02:53:20;;;;;;;124.97;39.63;;;-2.90;99.90;;;;;;5023708;28;20061;-58
2022/12/10 02:56:31;;;;;;;118.65;39.53;;;-2.90;99.90;;;;;;5024556;28;20052;-58
2022/12/10 02:59:10;;;;;;;113.60;39.25;;;-2.90;99.90;;;;;;5020532;28;20057;-58
2022/12/10 03:01:53;;;;;;;123.53;40.53;;;-2.90;99.90;;;;;;5023867;28;20199;-57
2022/12/10 03:04:29;;;;;;;117.03;40.47;;;-2.90;99.90;;;;;;5023515;28;20033;-57
2022/12/10 03:07:01;;;;;;;137.73;40.53;;;-2.90;99.90;;;;;;5023738;28;20041;-54
2022/12/10 03:09:34;;;;;;;119.10;39.70;;;-2.90;99.90;;;;;;5023167;28;20535;-57
2022/12/10 03:12:06;;;;;;;106.15;38.55;;;-2.90;99.90;;;;;;5024226;28;20421;-57
2022/12/10 03:14:33;;;;;;;114.85;39.38;;;-2.90;99.90;;;;;;5022042;28;20504;-58
2022/12/10 03:17:01;;;;;;;107.68;37.67;;;-3.00;99.90;;;;;;5023308;28;20045;-58
2022/12/10 03:19:44;;;;;;;115.22;38.92;;;-3.00;99.90;;;;;;5022821;28;20037;-56
2022/12/10 03:22:12;;;;;;;108.78;37.53;;;-3.10;99.90;;;;;;5038044;28;20516;-57
2022/12/10 03:24:41;;;;;;;121.30;40.67;;;-3.10;99.90;;;;;;5022841;28;20116;-57
2022/12/10 03:27:08;;;;;;;127.85;40.42;;;-3.10;99.90;;;;;;5022358;28;20103;-57
2022/12/10 03:29:39;;;;;;;128.52;40.22;;;-3.20;99.90;;;;;;5023539;28;20041;-55
2022/12/10 03:32:05;;;;;;;132.32;41.08;;;-3.10;99.90;;;;;;5022891;28;20077;-57
2022/12/10 03:34:31;;;;;;;126.65;39.80;;;-3.10;99.90;;;;;;5023232;28;20494;-57
2022/12/10 03:36:58;;;;;;;130.65;42.20;;;-3.10;99.90;;;;;;5021890;28;20179;-56
2022/12/10 03:39:25;;;;;;;126.65;39.63;;;-3.10;99.90;;;;;;5022335;28;20037;-57
2022/12/10 03:41:50;;;;;;;127.53;40.03;;;-3.20;99.90;;;;;;5023362;28;20049;-53
2022/12/10 03:44:27;;;;;;;123.47;40.70;;;-3.20;99.90;;;;;;5021998;28;20547;-56
2022/12/10 03:46:53;;;;;;;128.20;40.83;;;-3.20;99.90;;;;;;5023328;28;20084;-57
2022/12/10 03:49:18;;;;;;;121.70;39.90;;;-3.20;99.90;;;;;;5023054;28;20038;-57
2022/12/10 03:51:44;;;;;;;128.90;40.00;;;-3.20;99.90;;;;;;5023017;28;20069;-58
2022/12/10 03:54:09;;;;;;;137.45;42.67;;;-3.20;99.90;;;;;;5023286;28;20041;-57
2022/12/10 03:56:35;;;;;;;130.43;38.83;;;-3.30;99.90;;;;;;5023982;28;20077;-57
2022/12/10 03:59:00;;;;;;;109.88;37.95;;;-3.30;99.90;;;;;;5022523;28;20046;-56
2022/12/10 04:01:26;;;;;;;116.70;37.80;;;-3.30;99.90;;;;;;5022855;28;20100;-56
2022/12/10 04:03:52;;;;;;;106.53;37.80;;;-3.30;99.90;;;;;;5022406;28;20092;-57
2022/12/10 04:06:18;;;;;;;116.88;40.50;;;-3.40;99.90;;;;;;5022891;28;20377;-54
2022/12/10 04:08:45;;;;;;;108.57;39.17;;;-3.40;99.90;;;;;;5022915;28;20400;-55
2022/12/10 04:11:13;;;;;;;119.03;38.88;;;-3.40;99.90;;;;;;5023004;28;20657;-56
2022/12/10 04:16:26;;;;;;;119.03;39.20;;;-3.50;99.90;;;;;;5022706;28;20045;-55
2022/12/10 04:19:00;;;;;;;117.57;40.03;;;-3.50;99.90;;;;;;5021870;28;20500;-56
2022/12/10 04:27:04;;;;;;;126.75;39.97;;;-3.50;99.90;;;;;;5022626;28;20053;-56
2022/12/10 04:29:30;;;;;;;125.57;40.08;;;-3.50;99.90;;;;;;5019786;28;20484;-58
2022/12/10 04:31:57;;;;;;;130.20;40.80;;;-3.50;99.90;;;;;;5022343;28;20124;-55
2022/12/10 04:34:24;;;;;;;126.38;38.20;;;-3.50;99.90;;;;;;5022702;28;20037;-57
2022/12/10 04:36:50;;;;;;;128.55;40.42;;;-3.50;99.90;;;;;;5025122;28;20042;-57
2022/12/10 04:39:17;;;;;;;120.00;40.38;;;-3.50;99.90;;;;;;5026693;28;20821;-57
2022/12/10 04:41:44;;;;;;;123.88;39.35;;;-3.60;99.90;;;;;;5026226;28;20152;-58
2022/12/10 04:44:11;;;;;;;106.38;37.97;;;-3.60;99.90;;;;;;5024969;28;20050;-57
2022/12/10 04:46:37;;;;;;;130.65;39.35;;;-3.60;99.90;;;;;;5026584;28;20109;-58
2022/12/10 04:49:04;;;;;;;124.72;40.00;;;-3.60;99.90;;;;;;5025552;28;20049;-56
2022/12/10 04:51:30;;;;;;;125.95;40.63;;;-3.60;99.90;;;;;;5025871;28;20487;-56
2022/12/10 04:53:56;;;;;;;112.65;37.88;;;-3.70;99.90;;;;;;5024504;28;20044;-57
2022/12/10 04:56:22;;;;;;;130.27;39.60;;;-3.70;99.90;;;;;;5025077;28;20073;-55
2022/12/10 04:58:47;;;;;;;112.97;39.10;;;-3.70;99.90;;;;;;5006596;28;20084;-57
2022/12/10 05:01:13;;;;;;;134.68;41.00;;;-3.70;99.90;;;;;;5026324;28;20049;-58
2022/12/10 05:03:39;;;;;;;127.63;39.40;;;-3.70;99.90;;;;;;5025838;28;20102;-57
2022/12/10 05:06:09;;;;;;;114.28;38.85;;;-3.70;99.90;;;;;;5025882;28;20049;-56
2022/12/10 05:08:36;;;;;;;133.35;40.53;;;-3.80;99.90;;;;;;5025669;28;20149;-58
2022/12/10 05:11:03;;;;;;;111.38;37.97;;;-3.80;99.90;;;;;;5025569;28;20033;-55
2022/12/10 05:13:29;;;;;;;122.13;38.85;;;-3.80;99.90;;;;;;5019251;28;20045;-56
2022/12/10 05:15:55;;;;;;;117.38;38.90;;;-3.80;99.90;;;;;;5026028;28;20037;-57
2022/12/10 05:18:20;;;;;;;128.27;40.03;;;-3.90;99.90;;;;;;5024715;28;20037;-58
2022/12/10 05:20:46;;;;;;;108.97;37.40;;;-3.90;99.90;;;;;;5024931;28;20029;-55
2022/12/10 05:23:30;;;;;;;129.88;40.83;;;-3.90;99.90;;;;;;5025596;28;20577;-57
2022/12/10 05:26:05;;;;;;;115.75;38.38;;;-3.90;99.90;;;;;;5023954;28;20116;-54
2022/12/10 05:28:36;;;;;;;124.10;39.92;;;-4.00;99.90;;;;;;5024115;28;20053;-55
2022/12/10 05:31:03;;;;;;;134.88;39.33;;;-4.00;99.90;;;;;;5024812;28;20041;-53
2022/12/10 05:33:28;;;;;;;145.15;43.17;;;-4.00;99.90;;;;;;5024620;28;20041;-58
2022/12/10 05:35:57;;;;;;;123.88;40.97;;;-4.00;99.90;;;;;;5023627;28;20072;-57
2022/12/10 05:38:23;;;;;;;129.65;40.78;;;-4.00;99.90;;;;;;5023474;28;20041;-56
2022/12/10 05:40:49;;;;;;;121.97;38.25;;;-4.00;99.90;;;;;;5024372;28;20072;-57
2022/12/10 05:43:15;;;;;;;122.28;40.00;;;-4.00;99.90;;;;;;5024073;28;20042;-56
2022/12/10 05:45:40;;;;;;;154.05;44.35;;;-4.00;99.90;;;;;;5025162;28;20099;-57
2022/12/10 05:48:06;;;;;;;160.35;43.63;;;-4.00;99.90;;;;;;5023185;28;20041;-57
2022/12/10 05:50:32;;;;;;;119.28;40.22;;;-4.00;99.90;;;;;;5024228;28;20463;-57
2022/12/10 05:52:58;;;;;;;127.30;39.85;;;-4.00;99.90;;;;;;5024791;28;20052;-57
2022/12/10 05:55:24;;;;;;;144.05;42.30;;;-4.10;99.90;;;;;;5025146;28;20041;-57
2022/12/10 05:57:50;;;;;;;111.20;39.10;;;-4.10;99.90;;;;;;5024125;28;20068;-57
2022/12/10 06:00:15;;;;;;;114.72;39.08;;;-4.10;99.90;;;;;;5023919;28;20052;-56
2022/12/10 06:02:41;;;;;;;106.28;37.42;;;-4.10;99.90;;;;;;5024156;28;20492;-55
2022/12/10 06:05:07;;;;;;;115.20;38.10;;;-4.20;99.90;;;;;;5024163;28;20087;-57
2022/12/10 06:07:32;;;;;;;113.05;39.35;;;-4.20;99.90;;;;;;5024362;28;20038;-57
2022/12/10 06:09:58;;;;;;;115.45;38.88;;;-4.20;99.90;;;;;;5025007;28;20107;-57
2022/12/10 06:12:23;;;;;;;123.22;40.55;;;-4.20;99.90;;;;;;5024184;28;20057;-57
2022/12/10 06:14:49;;;;;;;124.50;40.72;;;-4.20;99.90;;;;;;5025149;28;20488;-58
2022/12/10 06:17:15;;;;;;;128.68;40.70;;;-4.20;99.90;;;;;;5024007;28;20045;-58
2022/12/10 06:19:40;;;;;;;133.63;41.53;;;-4.20;99.90;;;;;;5023784;28;20129;-57
2022/12/10 06:22:06;;;;;;;134.75;41.25;;;-4.10;99.90;;;;;;5024349;28;20539;-57
2022/12/10 06:24:31;;;;;;;133.70;41.88;;;-4.10;99.90;;;;;;5024699;28;20393;-57
2022/12/10 06:26:57;;;;;;;176.43;49.45;;;-4.10;99.90;;;;;;5024530;28;20095;-57
2022/12/10 06:29:23;;;;;;;157.43;45.15;;;-4.00;99.90;;;;;;5023941;28;20764;-56
2022/12/10 06:31:48;;;;;;;150.18;42.60;;;-4.00;99.90;;;;;;5023841;28;20079;-53
2022/12/10 06:34:14;;;;;;;155.63;44.05;;;-3.90;99.90;;;;;;5023294;28;20567;-57
2022/12/10 06:36:39;;;;;;;151.20;44.70;;;-3.90;99.90;;;;;;5024021;28;20060;-57
2022/12/10 06:39:05;;;;;;;140.50;44.75;;;-3.80;99.90;;;;;;5024511;28;20049;-58
2022/12/10 06:41:30;;;;;;;142.50;44.80;;;-3.80;99.90;;;;;;5024512;28;20112;-57
2022/12/10 06:43:59;;;;;;;145.13;46.38;;;-3.80;99.90;;;;;;5024199;28;20042;-58
2022/12/10 06:46:27;;;;;;;149.38;45.72;;;-3.80;99.90;;;;;;5022152;28;20034;-56
2022/12/10 06:48:52;;;;;;;140.77;45.17;;;-3.70;99.90;;;;;;5023278;28;20041;-57
2022/12/10 06:51:18;;;;;;;171.95;47.83;;;-3.70;99.90;;;;;;5023608;28;20057;-58
2022/12/10 06:53:45;;;;;;;205.48;52.38;;;-3.70;99.90;;;;;;5023794;28;20068;-57
2022/12/10 06:56:16;;;;;;;193.00;48.78;;;-3.60;99.90;;;;;;5023800;28;20072;-57
2022/12/10 06:58:43;;;;;;;189.48;49.13;;;-3.50;99.90;;;;;;5021077;28;20576;-57
2022/12/10 07:01:13;;;;;;;170.35;46.75;;;-3.40;99.90;;;;;;5024439;28;20042;-58
2022/12/10 07:03:40;;;;;;;193.15;48.95;;;-3.30;99.90;;;;;;5022499;28;20688;-58
2022/12/10 07:06:07;;;;;;;215.48;54.70;;;-3.30;99.90;;;;;;5022059;28;20140;-57
2022/12/10 07:08:33;;;;;;;199.55;52.50;;;-3.20;99.90;;;;;;5023437;28;20492;-58
2022/12/10 07:10:59;;;;;;;213.65;53.08;;;-3.10;99.90;;;;;;5023416;28;20048;-58
2022/12/10 07:13:25;;;;;;;197.45;53.13;;;-3.10;99.90;;;;;;5021552;28;20037;-57
2022/12/10 07:15:50;;;;;;;189.20;52.80;;;-3.00;99.90;;;;;;5023600;28;20033;-58
2022/12/10 07:18:16;;;;;;;219.77;55.55;;;-2.90;99.90;;;;;;5022674;28;20091;-58
2022/12/10 07:20:41;;;;;;;223.77;54.40;;;-2.90;99.90;;;;;;5023356;28;20038;-56
2022/12/10 07:23:07;;;;;;;218.18;53.65;;;-2.80;99.90;;;;;;5022930;28;20041;-57
2022/12/10 07:25:33;;;;;;;220.90;55.08;;;-2.80;99.90;;;;;;5023457;28;20378;-57
2022/12/10 07:27:59;;;;;;;227.93;55.50;;;-2.80;99.90;;;;;;5020800;28;20049;-57
2022/12/10 07:30:24;;;;;;;215.25;52.45;;;-2.70;99.90;;;;;;5022076;28;20095;-57
2022/12/10 07:32:50;;;;;;;218.50;56.03;;;-2.70;99.90;;;;;;5022920;28;20562;-57
2022/12/10 07:35:15;;;;;;;209.63;55.33;;;-2.70;99.90;;;;;;5022326;28;20063;-58
2022/12/10 07:37:41;;;;;;;214.68;53.67;;;-2.70;99.90;;;;;;5020627;28;20069;-59
2022/12/10 07:40:07;;;;;;;217.07;53.75;;;-2.60;99.90;;;;;;5022758;28;20675;-56
2022/12/10 07:42:33;;;;;;;211.43;54.33;;;-2.60;99.90;;;;;;5021482;28;20044;-56
2022/12/10 07:44:58;;;;;;;214.60;56.40;;;-2.60;99.90;;;;;;5021865;28;20699;-58
2022/12/10 07:47:24;;;;;;;225.93;54.38;;;-2.60;99.90;;;;;;5022259;28;20084;-58
2022/12/10 07:49:50;;;;;;;210.43;52.75;;;-2.60;99.90;;;;;;5022460;28;20055;-54
2022/12/10 07:52:16;;;;;;;200.82;50.78;;;-2.60;99.90;;;;;;5022571;28;20061;-59
2022/12/10 07:54:41;;;;;;;211.75;55.42;;;-2.50;99.90;;;;;;5022962;28;20045;-58
2022/12/10 07:57:07;;;;;;;220.10;55.22;;;-2.50;99.90;;;;;;5021164;28;20590;-58
2022/12/10 07:59:32;;;;;;;204.48;53.78;;;-2.50;99.90;;;;;;5018489;28;20617;-55
2022/12/10 08:01:58;;;;;;;197.15;53.58;;;-2.50;99.90;;;;;;5022559;28;20041;-56
2022/12/10 08:04:23;;;;;;;212.57;55.22;;;-2.50;99.90;;;;;;5021472;28;20049;-58
2022/12/10 08:06:49;;;;;;;204.88;56.60;;;-2.50;99.90;;;;;;5021082;28;20462;-58
2022/12/10 08:09:15;;;;;;;218.02;54.35;;;-2.50;99.90;;;;;;5035914;28;20048;-58
2022/12/10 08:11:40;;;;;;;218.40;53.72;;;-2.50;99.90;;;;;;5027043;28;20049;-58
2022/12/10 08:14:06;;;;;;;212.65;54.70;;;-2.50;99.90;;;;;;5023685;28;20087;-58
2022/12/10 08:16:32;;;;;;;218.10;56.22;;;-2.40;99.90;;;;;;5026693;28;20049;-57
2022/12/10 08:18:59;;;;;;;226.30;54.88;;;-2.40;99.90;;;;;;5025118;28;20041;-58
2022/12/10 08:21:28;;;;;;;209.00;54.38;;;-2.40;99.90;;;;;;5026046;28;20437;-57
2022/12/10 08:23:54;;;;;;;231.50;55.83;;;-2.40;99.90;;;;;;5026500;28;20049;-58
2022/12/10 08:26:24;;;;;;;218.45;54.78;;;-2.40;99.90;;;;;;5025415;28;20033;-58
2022/12/10 08:28:51;;;;;;;221.57;55.55;;;-2.40;99.90;;;;;;5024000;28;20044;-58
2022/12/10 08:31:18;;;;;;;215.27;55.78;;;-2.30;99.90;;;;;;5026305;28;20100;-58
2022/12/10 08:33:44;;;;;;;214.27;55.60;;;-2.40;99.90;;;;;;5025782;28;20068;-58
2022/12/10 08:36:14;;;;;;;240.43;58.15;;;-2.30;99.90;;;;;;5026052;28;20048;-58
2022/12/10 08:38:41;;;;;;;202.63;54.80;;;-2.30;99.90;;;;;;5025043;28;20610;-57
2022/12/10 08:41:32;;;;;;;210.52;54.75;;;-2.30;99.90;;;;;;5025579;28;20578;-57
2022/12/10 08:43:58;;;;;;;218.32;53.55;;;-2.30;99.90;;;;;;5023240;28;20523;-57
2022/12/10 08:46:25;;;;;;;215.02;53.40;;;-2.30;99.90;;;;;;5026921;28;20052;-59
2022/12/10 08:48:51;;;;;;;218.02;54.80;;;-2.20;99.90;;;;;;5022120;28;20045;-57
2022/12/10 08:51:18;;;;;;;214.63;54.35;;;-2.20;99.90;;;;;;5021552;28;20046;-59
2022/12/10 08:53:44;;;;;;;202.93;55.65;;;-2.20;99.90;;;;;;5025413;28;20116;-58
2022/12/10 08:56:10;;;;;;;225.43;56.53;;;-2.20;99.90;;;;;;5025863;28;20125;-57
2022/12/10 08:58:37;;;;;;;220.55;57.75;;;-2.20;99.90;;;;;;5021562;28;20115;-58
2022/12/10 09:01:07;;;;;;;199.13;53.58;;;-2.10;99.90;;;;;;5025760;28;20048;-57
2022/12/10 09:03:33;;;;;;;209.30;54.95;;;-2.10;99.90;;;;;;5020230;28;20033;-58
2022/12/10 09:06:13;;;;;;;194.00;52.65;;;-2.10;99.90;;;;;;5021687;28;20036;-58
2022/12/10 09:08:38;;;;;;;230.82;55.25;;;-2.10;99.90;;;;;;5022647;28;20034;-57
2022/12/10 09:11:10;;;;;;;192.88;51.75;;;-2.10;99.90;;;;;;5023245;28;20460;-58
2022/12/10 09:13:36;;;;;;;158.65;45.90;;;-2.00;99.90;;;;;;5021065;28;20145;-58
2022/12/10 09:16:01;;;;;;;191.38;50.35;;;-2.00;99.90;;;;;;5025019;28;20041;-56
2022/12/10 09:18:27;;;;;;;177.35;51.78;;;-2.00;99.90;;;;;;5024723;28;20041;-57
2022/12/10 09:20:52;;;;;;;171.57;50.78;;;-1.90;99.90;;;;;;5024840;28;20069;-57
2022/12/10 09:23:18;;;;;;;189.43;53.35;;;-2.00;99.90;;;;;;5024213;28;20064;-58
2022/12/10 09:25:43;;;;;;;194.27;51.35;;;-2.00;99.90;;;;;;5024680;28;20535;-58
2022/12/10 09:28:09;;;;;;;200.02;52.95;;;-2.00;99.90;;;;;;5024956;28;20044;-58
2022/12/10 09:30:35;;;;;;;183.32;52.70;;;-1.90;99.90;;;;;;5024829;28;20045;-56
2022/12/10 09:33:00;;;;;;;184.43;49.50;;;-1.90;99.90;;;;;;5024791;28;20459;-57
2022/12/10 09:35:26;;;;;;;200.40;53.92;;;-2.00;99.90;;;;;;5024977;28;20033;-58
2022/12/10 09:37:52;;;;;;;194.82;52.17;;;-1.90;99.90;;;;;;5025243;28;20053;-59
2022/12/10 09:40:29;;;;;;;198.38;52.78;;;-1.90;99.90;;;;;;5024350;28;20045;-56
2022/12/10 09:43:16;;;;;;;184.25;51.75;;;-1.90;99.90;;;;;;5021972;28;20138;-58
2022/12/10 09:46:01;;;;;;;195.27;54.88;;;-1.80;99.90;;;;;;5024569;28;20037;-58
2022/12/10 09:48:54;;;;;;;183.23;49.60;;;-1.80;99.90;;;;;;5022887;28;20445;-58
2022/12/10 09:51:23;;;;;;;168.82;46.67;;;-1.80;99.90;;;;;;5020042;28;20493;-58
2022/12/10 09:53:57;;;;;;;186.25;51.25;;;-1.80;99.90;;;;;;5004990;28;20659;-59
2022/12/10 09:56:28;;;;;;;169.80;48.63;;;-1.80;99.90;;;;;;5005292;28;20165;-57
2022/12/10 09:58:54;;;;;;;176.32;51.88;;;-1.70;99.90;;;;;;5022685;28;20475;-56
2022/12/10 10:01:27;;;;;;;175.00;48.75;;;-1.70;99.90;;;;;;5025181;28;20077;-56
2022/12/10 10:03:53;;;;;;;198.77;53.50;;;-1.70;99.90;;;;;;5023850;28;20045;-56
2022/12/10 10:06:20;;;;;;;156.73;49.63;;;-1.60;99.90;;;;;;5024297;28;20130;-57
2022/12/10 10:08:50;;;;;;;174.80;50.42;;;-1.60;99.90;;;;;;5024180;28;20045;-56
2022/12/10 10:11:23;;;;;;;160.50;48.03;;;-1.60;99.90;;;;;;5024525;28;20049;-58
2022/12/10 10:13:59;;;;;;;175.07;48.40;;;-1.60;99.90;;;;;;5022985;28;20054;-57
2022/12/10 10:16:34;;;;;;;181.90;50.20;;;-1.60;99.90;;;;;;5024626;28;20073;-57
2022/12/10 10:19:04;;;;;;;177.10;48.80;;;-1.60;99.90;;;;;;5018659;28;20103;-57
2022/12/10 10:21:39;;;;;;;165.30;47.80;;;-1.60;99.90;;;;;;5023762;28;20056;-57
2022/12/10 10:24:10;;;;;;;154.15;46.95;;;-1.60;99.90;;;;;;5023971;28;20136;-56
2022/12/10 10:26:35;;;;;;;175.90;48.65;;;-1.70;99.90;;;;;;5023432;28;20122;-56
2022/12/10 10:29:05;;;;;;;165.13;46.95;;;-1.70;99.90;;;;;;5022232;28;20139;-57
2022/12/10 10:31:33;;;;;;;166.25;46.72;;;-1.70;99.90;;;;;;5024470;28;20507;-58
2022/12/10 10:34:21;;;;;;;159.07;45.40;;;-1.70;99.90;;;;;;5022088;28;20048;-57
2022/12/10 10:36:52;;;;;;;165.60;49.28;;;-1.60;99.90;;;;;;5023763;28;20037;-58
2022/12/10 10:39:18;;;;;;;179.48;49.00;;;-1.60;99.90;;;;;;5023731;28;20618;-58
2022/12/10 10:41:50;;;;;;;186.52;53.10;;;-1.60;99.90;;;;;;5023263;28;20056;-58
2022/12/10 10:44:22;;;;;;;192.13;53.20;;;-1.50;99.90;;;;;;5022375;28;20139;-56
2022/12/10 10:46:50;;;;;;;187.25;52.72;;;-1.50;99.90;;;;;;5022966;28;20045;-57
2022/12/10 10:49:26;;;;;;;168.02;49.60;;;-1.50;99.90;;;;;;5022564;28;20033;-58
2022/12/10 10:52:11;;;;;;;185.88;50.95;;;-1.40;99.90;;;;;;5022943;28;20110;-56
2022/12/10 10:54:37;;;;;;;182.90;51.45;;;-1.40;99.90;;;;;;5023825;28;20052;-58
2022/12/10 10:57:25;;;;;;;181.77;54.00;;;-1.40;99.90;;;;;;5022614;28;20045;-58
2022/12/10 11:00:22;;;;;;;168.38;49.47;;;-1.30;99.90;;;;;;5014489;28;20053;-59
2022/12/10 11:02:48;;;;;;;174.13;49.67;;;-1.30;99.90;;;;;;5023497;28;20125;-58
2022/12/10 11:05:26;;;;;;;176.23;52.15;;;-1.30;99.90;;;;;;5022874;28;20081;-58
2022/12/10 11:08:18;;;;;;;176.07;52.17;;;-1.20;99.90;;;;;;5023833;28;20068;-58
2022/12/10 11:11:03;;;;;;;169.30;49.20;;;-1.20;99.90;;;;;;5022933;28;20195;-58
2022/12/10 11:13:30;;;;;;;;;;;-1.20;99.90;;;;;;5022617;28;20622;-58
2022/12/10 11:16:18;;;;;;;171.48;50.10;;;-1.10;99.90;;;;;;5022929;28;20571;-57
2022/12/10 11:19:05;;;;;;;166.20;51.15;;;-1.10;99.90;;;;;;5022290;28;20128;-58
2022/12/10 11:21:33;;;;;;;170.05;50.78;;;-1.10;99.90;;;;;;5023108;28;20053;-57
2022/12/10 11:23:59;;;;;;;156.32;49.42;;;-1.00;99.90;;;;;;5023249;28;20333;-58
2022/12/10 11:26:52;;;;;;;158.27;50.22;;;-1.00;99.90;;;;;;5022067;28;20120;-58
2022/12/10 11:29:42;;;;;;;156.93;49.67;;;-1.00;99.90;;;;;;5001687;28;20092;-59
2022/12/10 11:32:25;;;;;;;142.93;47.67;;;-1.00;99.90;;;;;;5003406;28;20140;-57
2022/12/10 11:35:10;;;;;;;145.57;46.22;;;-1.00;99.90;;;;;;5017197;28;20041;-57
2022/12/10 11:37:54;;;;;;;147.98;45.55;;;-1.00;99.90;;;;;;5003141;28;20694;-58
2022/12/10 11:40:41;;;;;;;142.70;44.50;;;-0.90;99.90;;;;;;5002980;28;20091;-58
2022/12/10 11:43:28;;;;;;;142.05;45.60;;;-0.90;99.90;;;;;;5034505;28;20080;-57
2022/12/10 11:46:26;;;;;;;144.93;47.03;;;-0.90;99.90;;;;;;5022841;28;20049;-58
2022/12/10 11:49:06;;;;;;;143.63;48.15;;;-0.90;99.90;;;;;;5015276;28;20077;-57
2022/12/10 11:51:51;;;;;;;146.32;47.72;;;-0.80;99.90;;;;;;5037678;28;20061;-58
2022/12/10 11:54:41;;;;;;;145.90;47.85;;;-0.80;99.90;;;;;;5023121;28;20069;-57
2022/12/10 11:57:20;;;;;;;138.80;46.83;;;-0.80;99.90;;;;;;5023110;28;20033;-58
2022/12/10 12:00:00;;;;;;;153.07;46.55;;;-0.80;99.90;;;;;;5001648;28;20116;-57
2022/12/10 12:03:08;;;;;;;152.88;46.88;;;-0.80;99.90;;;;;;5004924;28;20054;-58
2022/12/10 12:05:54;;;;;;;132.38;42.92;;;-0.70;99.90;;;;;;5022258;28;20095;-56
2022/12/10 12:08:54;;;;;;;138.43;44.20;;;-0.70;99.90;;;;;;5038063;28;20136;-57
2022/12/10 12:11:55;;;;;;;134.90;43.10;;;-0.80;99.90;;;;;;5021046;28;20057;-58
2022/12/10 12:14:55;;;;;;;144.98;42.88;;;-0.70;99.90;;;;;;5001553;28;20054;-58
2022/12/10 12:17:28;;;;;;;135.90;44.25;;;-0.80;99.90;;;;;;4998611;28;20137;-58
2022/12/10 12:20:21;;;;;;;148.82;45.72;;;-0.80;99.90;;;;;;5022229;28;20451;-57
2022/12/10 12:23:05;;;;;;;131.95;42.25;;;-0.80;99.90;;;;;;5017845;28;20045;-58
2022/12/10 12:25:41;;;;;;;161.80;46.33;;;-0.80;99.90;;;;;;5022418;28;20682;-57
2022/12/10 12:28:27;;;;;;;148.10;44.67;;;-0.80;99.90;;;;;;5021602;28;20169;-58
2022/12/10 12:31:04;;;;;;;157.98;46.13;;;-0.70;99.90;;;;;;5022695;28;20755;-58
2022/12/10 12:33:58;;;;;;;153.10;45.60;;;-0.80;99.90;;;;;;5021694;28;20117;-57
2022/12/10 12:36:29;;;;;;;160.18;45.13;;;-0.80;99.90;;;;;;5020468;28;20500;-57
2022/12/10 12:38:59;;;;;;;142.27;43.60;;;-0.90;99.90;;;;;;5022248;28;20061;-57
2022/12/10 12:41:39;;;;;;;146.77;44.83;;;-0.90;99.90;;;;;;5023101;28;20064;-58
2022/12/10 12:44:11;;;;;;;149.95;42.38;;;-0.90;99.90;;;;;;5021960;28;20046;-59